createdAt,value
2018-02-14T00:02:24.121Z,-0.59
2018-02-14T00:04:55.217Z,-0.58
2018-02-14T00:07:26.195Z,-0.60
2018-02-14T00:09:57.213Z,-0.59
2018-02-14T00:12:28.155Z,-0.59
2018-02-14T00:14:59.261Z,-0.60
2018-02-14T00:17:30.258Z,-0.62
2018-02-14T00:20:01.256Z,-0.66
2018-02-14T00:22:32.272Z,-0.67
2018-02-14T00:25:03.277Z,-0.69
2018-02-14T00:27:34.306Z,-0.71
2018-02-14T00:30:05.303Z,-0.72
2018-02-14T00:32:36.458Z,-0.71
2018-02-14T00:35:07.417Z,-0.72
2018-02-14T00:37:38.462Z,-0.70
2018-02-14T00:40:09.449Z,-0.70
2018-02-14T00:42:40.480Z,-0.74
2018-02-14T00:45:11.442Z,-0.77
2018-02-14T00:47:42.480Z,-0.77
2018-02-14T00:50:13.431Z,-0.77
2018-02-14T00:52:44.502Z,-0.79
2018-02-14T00:55:15.496Z,-0.79
2018-02-14T00:57:46.481Z,-0.80
2018-02-14T01:00:17.452Z,-0.80
2018-02-14T01:02:48.466Z,-0.79
2018-02-14T01:05:19.476Z,-0.81
2018-02-14T01:07:50.512Z,-0.81
2018-02-14T01:10:21.497Z,-0.79
2018-02-14T01:12:52.529Z,-0.79
2018-02-14T01:15:23.599Z,-0.78
2018-02-14T01:17:54.633Z,-0.77
2018-02-14T01:20:31.713Z,-0.79
2018-02-14T01:23:02.710Z,-0.82
2018-02-14T01:25:33.717Z,-0.86
2018-02-14T01:28:04.727Z,-0.84
2018-02-14T01:30:35.729Z,-0.82
2018-02-14T01:33:06.738Z,-0.82
2018-02-14T01:35:37.744Z,-0.82
2018-02-14T01:38:08.790Z,-0.85
2018-02-14T01:40:39.765Z,-0.85
2018-02-14T01:43:10.849Z,-0.83
2018-02-14T01:45:41.840Z,-0.84
2018-02-14T01:48:12.869Z,-0.82
2018-02-14T01:50:43.826Z,-0.87
2018-02-14T01:53:14.843Z,-0.86
2018-02-14T01:55:45.867Z,-0.86
2018-02-14T01:58:16.859Z,-0.86
2018-02-14T02:00:47.869Z,-0.86
2018-02-14T02:03:18.865Z,-0.89
2018-02-14T02:05:49.818Z,-0.86
2018-02-14T02:08:27.795Z,-0.87
2018-02-14T02:10:58.791Z,-0.91
2018-02-14T02:13:29.803Z,-0.92
2018-02-14T02:16:00.987Z,-0.91
2018-02-14T02:18:31.955Z,-0.90
2018-02-14T02:21:03.004Z,-0.89
2018-02-14T02:23:34.197Z,-0.89
2018-02-14T02:26:05.202Z,-0.89
2018-02-14T02:28:36.273Z,-0.90
2018-02-14T02:31:07.286Z,-0.91
2018-02-14T02:33:38.258Z,-0.90
2018-02-14T02:36:09.280Z,-0.90
2018-02-14T02:38:40.279Z,-0.95
2018-02-14T02:41:11.250Z,-0.96
2018-02-14T02:43:42.299Z,-0.96
2018-02-14T02:46:13.236Z,-0.96
2018-02-14T02:48:44.246Z,-0.98
2018-02-14T02:51:15.187Z,-1.00
2018-02-14T02:53:46.183Z,-1.04
2018-02-14T02:56:17.173Z,-1.00
2018-02-14T02:58:48.173Z,-1.02
2018-02-14T03:01:19.183Z,-1.07
2018-02-14T03:03:50.197Z,-1.08
2018-02-14T03:06:21.161Z,-1.14
2018-02-14T03:08:52.207Z,-1.15
2018-02-14T03:11:23.195Z,-1.17
2018-02-14T03:13:54.216Z,-1.26
2018-02-14T03:16:25.267Z,-1.23
2018-02-14T03:18:56.295Z,-1.28
2018-02-14T03:21:27.239Z,-1.28
2018-02-14T03:23:58.225Z,-1.32
2018-02-14T03:26:29.276Z,-1.27
2018-02-14T03:29:00.266Z,-1.29
2018-02-14T03:31:31.266Z,-1.27
2018-02-14T03:34:02.225Z,-1.25
2018-02-14T03:36:33.213Z,-1.27
2018-02-14T03:39:04.203Z,-1.26
2018-02-14T03:41:35.251Z,-1.26
2018-02-14T03:44:06.241Z,-1.30
2018-02-14T03:46:37.231Z,-1.27
2018-02-14T03:49:08.272Z,-1.25
2018-02-14T03:51:39.232Z,-1.26
2018-02-14T03:54:10.289Z,-1.27
2018-02-14T03:56:41.256Z,-1.28
2018-02-14T03:59:12.310Z,-1.28
2018-02-14T04:01:44.189Z,-1.23
2018-02-14T04:04:15.189Z,-1.21
2018-02-14T04:06:46.163Z,-1.21
2018-02-14T04:09:17.145Z,-1.19
2018-02-14T04:11:48.136Z,-1.18
2018-02-14T04:14:19.152Z,-1.18
2018-02-14T04:16:50.124Z,-1.21
2018-02-14T04:19:21.137Z,-1.22
2018-02-14T04:21:52.139Z,-1.21
2018-02-14T04:24:23.167Z,-1.21
2018-02-14T04:26:54.131Z,-1.20
2018-02-14T04:29:25.298Z,-1.21
2018-02-14T04:31:56.295Z,-1.24
2018-02-14T04:34:27.332Z,-1.24
2018-02-14T04:36:58.333Z,-1.23
2018-02-14T04:39:29.349Z,-1.23
2018-02-14T04:42:00.366Z,-1.24
2018-02-14T04:44:31.332Z,-1.27
2018-02-14T04:47:02.332Z,-1.26
2018-02-14T04:49:33.343Z,-1.28
2018-02-14T04:52:06.351Z,-1.29
2018-02-14T04:54:37.381Z,-1.30
2018-02-14T04:57:08.392Z,-1.33
2018-02-14T04:59:39.344Z,-1.32
2018-02-14T05:02:10.324Z,-1.33
2018-02-14T05:04:41.325Z,-1.36
2018-02-14T05:07:12.336Z,-1.37
2018-02-14T05:09:43.285Z,-1.38
2018-02-14T05:12:14.275Z,-1.36
2018-02-14T05:14:45.310Z,-1.35
2018-02-14T05:17:16.319Z,-1.33
2018-02-14T05:19:47.346Z,-1.35
2018-02-14T05:22:18.347Z,-1.38
2018-02-14T05:24:49.380Z,-1.42
2018-02-14T05:27:20.386Z,-1.43
2018-02-14T05:29:51.412Z,-1.43
2018-02-14T05:32:22.443Z,-1.41
2018-02-14T05:34:53.495Z,-1.41
2018-02-14T05:37:24.517Z,-1.39
2018-02-14T05:39:55.489Z,-1.40
2018-02-14T05:42:26.467Z,-1.40
2018-02-14T05:44:57.439Z,-1.42
2018-02-14T05:47:28.450Z,-1.41
2018-02-14T05:49:59.416Z,-1.41
2018-02-14T05:52:30.411Z,-1.39
2018-02-14T05:55:01.380Z,-1.35
2018-02-14T05:57:32.389Z,-1.31
2018-02-14T06:00:03.445Z,-1.31
2018-02-14T06:02:34.380Z,-1.33
2018-02-14T06:05:05.402Z,-1.34
2018-02-14T06:07:36.382Z,-1.35
2018-02-14T06:10:07.362Z,-1.36
2018-02-14T06:12:38.496Z,-1.37
2018-02-14T06:15:09.616Z,-1.40
2018-02-14T06:17:40.596Z,-1.45
2018-02-14T06:20:11.552Z,-1.49
2018-02-14T06:22:42.645Z,-1.52
2018-02-14T06:25:13.627Z,-1.54
2018-02-14T06:27:44.580Z,-1.57
2018-02-14T06:30:15.573Z,-1.62
2018-02-14T06:32:46.601Z,-1.64
2018-02-14T06:35:17.586Z,-1.65
2018-02-14T06:37:48.580Z,-1.63
2018-02-14T06:40:19.538Z,-1.61
2018-02-14T06:42:50.525Z,-1.57
2018-02-14T06:45:21.511Z,-1.51
2018-02-14T06:47:52.508Z,-1.44
2018-02-14T06:50:23.513Z,-1.39
2018-02-14T06:52:56.341Z,-1.32
2018-02-14T06:55:27.392Z,-1.26
2018-02-14T06:57:58.378Z,-1.20
2018-02-14T07:00:29.777Z,-1.14
2018-02-14T07:03:00.800Z,-1.08
2018-02-14T07:05:31.808Z,-1.04
2018-02-14T07:08:02.804Z,-1.05
2018-02-14T07:10:33.765Z,-0.99
2018-02-14T07:13:04.759Z,-0.92
2018-02-14T07:15:35.798Z,-0.83
2018-02-14T07:18:06.820Z,-0.78
2018-02-14T07:20:37.785Z,-0.71
2018-02-14T07:23:08.857Z,-0.70
2018-02-14T07:25:39.898Z,-0.64
2018-02-14T07:28:10.872Z,-0.53
2018-02-14T07:30:41.867Z,-0.43
2018-02-14T07:33:12.867Z,-0.29
2018-02-14T07:35:43.870Z,-0.21
2018-02-14T07:38:14.911Z,-0.13
2018-02-14T07:40:45.912Z,-0.10
2018-02-14T07:43:16.944Z,-0.06
2018-02-14T07:45:47.956Z,0.05
2018-02-14T07:48:18.942Z,0.13
2018-02-14T07:50:49.939Z,0.18
2018-02-14T07:53:20.924Z,0.25
2018-02-14T07:55:51.895Z,0.30
2018-02-14T07:58:22.895Z,0.45
2018-02-14T08:00:53.891Z,0.58
2018-02-14T08:03:24.900Z,0.72
2018-02-14T08:05:55.908Z,0.83
2018-02-14T08:08:26.941Z,0.97
2018-02-14T08:10:57.921Z,1.11
2018-02-14T08:13:29.466Z,1.21
2018-02-14T08:16:00.507Z,1.34
2018-02-14T08:18:31.509Z,1.44
2018-02-14T08:21:02.523Z,1.58
2018-02-14T08:23:33.494Z,1.65
2018-02-14T08:26:04.533Z,1.68
2018-02-14T08:28:37.087Z,1.78
2018-02-14T08:31:08.119Z,1.95
2018-02-14T08:33:39.106Z,2.14
2018-02-14T08:36:10.111Z,2.49
2018-02-14T08:38:41.117Z,4.69
2018-02-14T08:41:12.137Z,7.43
2018-02-14T08:43:43.165Z,9.36
2018-02-14T08:46:14.151Z,11.98
2018-02-14T08:48:45.120Z,15.01
2018-02-14T08:51:16.146Z,17.38
2018-02-14T08:53:47.112Z,18.50
2018-02-14T08:56:18.096Z,19.43
2018-02-14T08:58:49.056Z,20.73
2018-02-14T09:01:20.037Z,22.07
2018-02-14T09:03:51.032Z,22.94
2018-02-14T09:06:22.000Z,23.24
2018-02-14T09:08:53.031Z,23.83
2018-02-14T09:11:24.041Z,24.28
2018-02-14T09:13:55.011Z,24.00
2018-02-14T09:16:25.960Z,24.37
2018-02-14T09:18:56.937Z,24.85
2018-02-14T09:21:27.961Z,25.30
2018-02-14T09:23:58.952Z,25.60
2018-02-14T09:26:29.975Z,25.52
2018-02-14T09:29:01.044Z,25.29
2018-02-14T09:31:32.316Z,25.63
2018-02-14T09:34:03.332Z,25.50
2018-02-14T09:36:34.299Z,25.74
2018-02-14T09:39:05.350Z,26.30
2018-02-14T09:41:36.357Z,26.46
2018-02-14T09:44:07.405Z,26.36
2018-02-14T09:46:38.402Z,26.64
2018-02-14T09:49:09.458Z,26.13
2018-02-14T09:51:40.420Z,26.23
2018-02-14T09:54:11.420Z,25.95
2018-02-14T09:56:42.403Z,25.23
2018-02-14T09:59:13.398Z,25.78
2018-02-14T10:01:44.382Z,26.33
2018-02-14T10:04:15.472Z,26.07
2018-02-14T10:06:46.488Z,25.79
2018-02-14T10:09:17.487Z,26.08
2018-02-14T10:11:48.456Z,26.20
2018-02-14T10:14:19.474Z,25.97
2018-02-14T10:16:50.497Z,25.46
2018-02-14T10:19:22.413Z,25.03
2018-02-14T10:21:53.371Z,25.16
2018-02-14T10:24:24.352Z,25.27
2018-02-14T10:26:55.311Z,25.22
2018-02-14T10:29:26.345Z,25.03
2018-02-14T10:31:57.299Z,24.96
2018-02-14T10:34:28.321Z,25.13
2018-02-14T10:36:59.316Z,25.18
2018-02-14T10:39:30.301Z,24.59
2018-02-14T10:42:01.328Z,24.33
2018-02-14T10:44:32.340Z,23.92
2018-02-14T10:47:03.342Z,23.95
2018-02-14T10:49:34.347Z,23.91
2018-02-14T10:52:05.325Z,23.95
2018-02-14T10:54:36.298Z,24.27
2018-02-14T10:57:07.257Z,24.22
2018-02-14T10:59:38.225Z,23.95
2018-02-14T11:02:10.146Z,24.10
2018-02-14T11:04:47.206Z,24.30
2018-02-14T11:07:18.220Z,23.82
2018-02-14T11:09:49.247Z,23.33
2018-02-14T11:12:20.233Z,23.45
2018-02-14T11:14:51.213Z,23.61
2018-02-14T11:17:22.162Z,22.85
2018-02-14T11:19:53.105Z,21.94
2018-02-14T11:22:24.139Z,21.31
2018-02-14T11:24:55.107Z,21.40
2018-02-14T11:27:26.148Z,21.77
2018-02-14T11:29:57.153Z,21.76
2018-02-14T11:32:28.126Z,21.46
2018-02-14T11:34:59.109Z,20.45
2018-02-14T11:37:30.089Z,20.04
2018-02-14T11:40:01.073Z,19.54
2018-02-14T11:42:32.024Z,18.77
2018-02-14T11:45:03.047Z,17.01
2018-02-14T11:47:34.093Z,15.26
2018-02-14T11:50:05.127Z,13.84
2018-02-14T11:52:36.088Z,12.75
2018-02-14T11:55:07.099Z,12.02
2018-02-14T11:57:38.131Z,11.63
2018-02-14T12:00:09.115Z,11.25
2018-02-14T12:02:40.101Z,10.67
2018-02-14T12:05:11.064Z,10.03
2018-02-14T12:07:42.078Z,9.54
2018-02-14T12:10:13.064Z,9.18
2018-02-14T12:12:44.043Z,9.02
2018-02-14T12:15:15.037Z,9.08
2018-02-14T12:17:46.027Z,8.99
2018-02-14T12:20:17.044Z,9.07
2018-02-14T12:22:48.092Z,9.01
2018-02-14T12:25:19.121Z,8.98
2018-02-14T12:27:50.181Z,8.80
2018-02-14T12:30:21.197Z,8.60
2018-02-14T12:32:52.216Z,8.67
2018-02-14T12:35:23.241Z,8.89
2018-02-14T12:37:54.243Z,9.10
2018-02-14T12:40:25.254Z,9.14
2018-02-14T12:42:56.210Z,9.55
2018-02-14T12:45:27.181Z,9.88
2018-02-14T12:47:58.166Z,9.61
2018-02-14T12:50:29.167Z,9.46
2018-02-14T12:53:00.159Z,9.55
2018-02-14T12:55:31.151Z,9.72
2018-02-14T12:58:02.170Z,9.71
2018-02-14T13:00:33.180Z,9.68
2018-02-14T13:03:04.197Z,9.17
2018-02-14T13:05:35.264Z,9.54
2018-02-14T13:08:06.249Z,9.77
2018-02-14T13:10:37.269Z,8.99
2018-02-14T13:13:08.281Z,9.08
2018-02-14T13:15:39.271Z,9.30
2018-02-14T13:18:10.254Z,9.52
2018-02-14T13:20:41.261Z,9.75
2018-02-14T13:23:12.225Z,9.95
2018-02-14T13:25:43.248Z,10.07
2018-02-14T13:28:14.248Z,9.80
2018-02-14T13:30:45.222Z,9.35
2018-02-14T13:33:16.230Z,9.38
2018-02-14T13:35:47.207Z,9.54
2018-02-14T13:38:18.230Z,9.43
2018-02-14T13:40:49.226Z,9.24
2018-02-14T13:43:20.261Z,9.02
2018-02-14T13:45:51.264Z,9.25
2018-02-14T13:48:22.273Z,9.02
2018-02-14T13:50:53.243Z,8.48
2018-02-14T13:53:24.225Z,8.35
2018-02-14T13:55:55.258Z,8.32
2018-02-14T13:58:26.218Z,8.15
2018-02-14T14:00:57.282Z,7.99
2018-02-14T14:03:28.276Z,8.02
2018-02-14T14:05:59.245Z,7.91
2018-02-14T14:08:30.254Z,7.95
2018-02-14T14:11:01.269Z,8.12
2018-02-14T14:13:32.300Z,8.41
2018-02-14T14:16:03.354Z,8.23
2018-02-14T14:18:34.385Z,7.91
2018-02-14T14:21:05.409Z,7.61
2018-02-14T14:23:36.439Z,7.40
2018-02-14T14:26:07.445Z,7.35
2018-02-14T14:28:38.481Z,7.31
2018-02-14T14:31:09.494Z,7.26
2018-02-14T14:33:40.466Z,7.15
2018-02-14T14:36:11.500Z,7.08
2018-02-14T14:38:42.444Z,7.06
2018-02-14T14:41:13.624Z,7.06
2018-02-14T14:43:44.644Z,6.90
2018-02-14T14:46:15.673Z,6.83
2018-02-14T14:48:46.651Z,6.84
2018-02-14T14:51:17.618Z,6.83
2018-02-14T14:53:48.657Z,6.76
2018-02-14T14:56:19.665Z,6.71
2018-02-14T14:58:50.704Z,6.57
2018-02-14T15:01:21.709Z,6.43
2018-02-14T15:03:52.720Z,6.42
2018-02-14T15:06:23.762Z,6.38
2018-02-14T15:08:54.717Z,6.33
2018-02-14T15:11:25.744Z,6.34
2018-02-14T15:13:56.730Z,6.36
2018-02-14T15:16:27.694Z,6.28
2018-02-14T15:18:58.680Z,6.24
2018-02-14T15:21:29.670Z,6.22
2018-02-14T15:24:00.709Z,6.17
2018-02-14T15:26:31.720Z,6.07
2018-02-14T15:29:02.688Z,6.05
2018-02-14T15:31:34.741Z,6.01
2018-02-14T15:34:05.798Z,5.87
2018-02-14T15:36:36.843Z,5.78
2018-02-14T15:39:07.857Z,5.73
2018-02-14T15:41:38.849Z,5.72
2018-02-14T15:44:09.875Z,5.65
2018-02-14T15:46:40.903Z,5.60
2018-02-14T15:49:11.868Z,5.55
2018-02-14T15:51:42.875Z,5.49
2018-02-14T15:54:13.967Z,5.45
2018-02-14T15:56:44.972Z,5.40
2018-02-14T15:59:15.971Z,5.30
2018-02-14T16:01:46.955Z,5.23
2018-02-14T16:04:17.997Z,5.13
2018-02-14T16:06:48.967Z,5.07
2018-02-14T16:09:19.963Z,5.03
2018-02-14T16:11:50.951Z,4.99
2018-02-14T16:14:21.985Z,4.96
2018-02-14T16:16:52.971Z,4.91
2018-02-14T16:19:23.939Z,4.84
2018-02-14T16:21:54.959Z,4.79
2018-02-14T16:24:25.961Z,4.70
2018-02-14T16:26:56.976Z,4.63
2018-02-14T16:29:27.983Z,4.58
2018-02-14T16:31:58.993Z,4.51
2018-02-14T16:34:32.415Z,4.46
2018-02-14T16:37:03.491Z,4.36
2018-02-14T16:39:34.585Z,4.29
2018-02-14T16:42:05.660Z,4.20
2018-02-14T16:44:36.629Z,4.13
2018-02-14T16:47:07.645Z,4.06
2018-02-14T16:49:38.673Z,4.02
2018-02-14T16:52:09.660Z,3.97
2018-02-14T16:54:40.698Z,3.94
2018-02-14T16:57:11.664Z,3.88
2018-02-14T16:59:42.648Z,3.81
2018-02-14T17:02:13.621Z,3.77
2018-02-14T17:04:44.631Z,3.74
2018-02-14T17:07:15.716Z,3.73
2018-02-14T17:09:46.717Z,3.72
2018-02-14T17:12:17.714Z,3.70
2018-02-14T17:14:48.706Z,3.70
2018-02-14T17:17:20.356Z,3.67
2018-02-14T17:19:51.353Z,3.64
2018-02-14T17:22:22.311Z,3.59
2018-02-14T17:24:53.282Z,3.58
2018-02-14T17:27:24.262Z,3.53
2018-02-14T17:29:55.254Z,3.44
2018-02-14T17:32:26.285Z,3.39
2018-02-14T17:34:57.322Z,3.33
2018-02-14T17:37:28.345Z,3.29
2018-02-14T17:39:59.361Z,3.25
2018-02-14T17:42:30.403Z,3.24
2018-02-14T17:45:01.403Z,3.19
2018-02-14T17:47:32.393Z,3.15
2018-02-14T17:50:03.457Z,3.11
2018-02-14T17:52:34.451Z,3.09
2018-02-14T17:55:05.478Z,3.08
2018-02-14T17:57:36.545Z,3.06
2018-02-14T18:00:07.607Z,3.03
2018-02-14T18:02:38.591Z,3.01
2018-02-14T18:05:09.661Z,3.00
2018-02-14T18:07:40.736Z,2.99
2018-02-14T18:10:13.714Z,2.98
2018-02-14T18:12:44.803Z,2.99
2018-02-14T18:15:15.825Z,2.98
2018-02-14T18:17:46.796Z,2.98
2018-02-14T18:20:17.869Z,2.97
2018-02-14T18:22:48.845Z,2.90
2018-02-14T18:25:19.882Z,2.84
2018-02-14T18:27:50.976Z,2.79
2018-02-14T18:30:22.006Z,2.75
2018-02-14T18:32:53.027Z,2.71
2018-02-14T18:35:24.052Z,2.68
2018-02-14T18:37:55.036Z,2.63
2018-02-14T18:40:26.052Z,2.60
2018-02-14T18:42:57.041Z,2.58
2018-02-14T18:45:28.058Z,2.57
2018-02-14T18:47:59.144Z,2.55
2018-02-14T18:50:30.133Z,2.52
2018-02-14T18:53:01.130Z,2.46
2018-02-14T18:55:32.860Z,2.40
2018-02-14T18:58:03.840Z,2.35
2018-02-14T19:00:34.851Z,2.33
2018-02-14T19:03:05.860Z,2.33
2018-02-14T19:05:36.816Z,2.32
2018-02-14T19:08:07.831Z,2.29
2018-02-14T19:10:38.778Z,2.27
2018-02-14T19:13:09.776Z,2.25
2018-02-14T19:15:40.794Z,2.18
2018-02-14T19:18:11.791Z,2.16
2018-02-14T19:20:42.817Z,2.12
2018-02-14T19:23:13.805Z,2.10
2018-02-14T19:25:44.802Z,2.06
2018-02-14T19:28:15.833Z,2.03
2018-02-14T19:30:46.901Z,2.00
2018-02-14T19:33:17.904Z,1.97
2018-02-14T19:35:48.935Z,1.95
2018-02-14T19:38:19.907Z,1.94
2018-02-14T19:40:50.897Z,1.92
2018-02-14T19:43:21.929Z,1.92
2018-02-14T19:45:52.939Z,1.91
2018-02-14T19:48:23.937Z,1.87
2018-02-14T19:50:54.956Z,1.84
2018-02-14T19:53:25.953Z,1.82
2018-02-14T19:55:57.173Z,1.77
2018-02-14T19:58:28.407Z,1.74
2018-02-14T20:00:59.347Z,1.72
2018-02-14T20:03:30.356Z,1.70
2018-02-14T20:06:01.330Z,1.67
2018-02-14T20:08:32.300Z,1.65
2018-02-14T20:11:03.336Z,1.63
2018-02-14T20:13:34.321Z,1.61
2018-02-14T20:16:05.325Z,1.58
2018-02-14T20:18:36.314Z,1.56
2018-02-14T20:21:07.318Z,1.53
2018-02-14T20:23:38.457Z,1.52
2018-02-14T20:26:09.488Z,1.51
2018-02-14T20:28:40.569Z,1.50
2018-02-14T20:31:11.597Z,1.48
2018-02-14T20:33:42.616Z,1.47
2018-02-14T20:36:13.690Z,1.48
2018-02-14T20:38:44.673Z,1.49
2018-02-14T20:41:15.658Z,1.47
2018-02-14T20:43:46.645Z,1.47
2018-02-14T20:46:17.634Z,1.44
2018-02-14T20:48:48.607Z,1.40
2018-02-14T20:51:19.563Z,1.38
2018-02-14T20:53:50.549Z,1.34
2018-02-14T20:56:21.527Z,1.31
2018-02-14T20:58:52.520Z,1.27
2018-02-14T21:01:24.457Z,1.23
2018-02-14T21:03:55.435Z,1.22
2018-02-14T21:06:26.421Z,1.18
2018-02-14T21:08:57.409Z,1.15
2018-02-14T21:11:28.424Z,1.13
2018-02-14T21:13:59.430Z,1.12
2018-02-14T21:16:30.437Z,1.09
2018-02-14T21:19:01.447Z,1.04
2018-02-14T21:21:32.425Z,1.04
2018-02-14T21:24:03.512Z,1.02
2018-02-14T21:26:34.455Z,0.98
2018-02-14T21:29:05.464Z,0.98
2018-02-14T21:31:36.410Z,0.97
2018-02-14T21:34:10.224Z,0.93
2018-02-14T21:36:41.186Z,0.89
2018-02-14T21:39:12.223Z,0.86
2018-02-14T21:41:43.217Z,0.83
2018-02-14T21:44:14.245Z,0.81
2018-02-14T21:46:45.179Z,0.77
2018-02-14T21:49:16.201Z,0.73
2018-02-14T21:51:47.196Z,0.71
2018-02-14T21:54:18.165Z,0.68
2018-02-14T21:56:49.204Z,0.67
2018-02-14T21:59:20.203Z,0.65
2018-02-14T22:01:51.180Z,0.65
2018-02-14T22:04:22.184Z,0.63
2018-02-14T22:06:53.139Z,0.62
2018-02-14T22:09:24.086Z,0.60
2018-02-14T22:11:55.108Z,0.58
2018-02-14T22:14:26.055Z,0.57
2018-02-14T22:16:57.070Z,0.52
2018-02-14T22:19:28.065Z,0.53
2018-02-14T22:21:59.039Z,0.49
2018-02-14T22:24:30.004Z,0.47
2018-02-14T22:27:01.004Z,0.43
2018-02-14T22:29:31.996Z,0.40
2018-02-14T22:32:02.990Z,0.37
2018-02-14T22:34:34.036Z,0.35
2018-02-14T22:37:05.026Z,0.35
2018-02-14T22:39:36.073Z,0.33
2018-02-14T22:42:07.029Z,0.33
2018-02-14T22:44:38.097Z,0.32
2018-02-14T22:47:09.116Z,0.30
2018-02-14T22:49:40.093Z,0.29
2018-02-14T22:52:11.105Z,0.26
2018-02-14T22:54:42.088Z,0.27
2018-02-14T22:57:13.089Z,0.25
2018-02-14T22:59:44.059Z,0.25
2018-02-14T23:02:15.102Z,0.22
2018-02-14T23:04:46.127Z,0.18
2018-02-14T23:07:17.201Z,0.18
2018-02-14T23:09:48.178Z,0.16
2018-02-14T23:12:19.147Z,0.14
2018-02-14T23:14:50.163Z,0.14
2018-02-14T23:17:21.166Z,0.10
2018-02-14T23:19:52.183Z,0.08
2018-02-14T23:22:23.148Z,0.07
2018-02-14T23:24:54.163Z,0.06
2018-02-14T23:27:25.185Z,0.04
2018-02-14T23:29:56.199Z,0.04
2018-02-14T23:32:27.222Z,0.00
2018-02-14T23:34:58.193Z,-0.04
2018-02-14T23:37:29.223Z,-0.05
2018-02-14T23:40:00.212Z,-0.08
2018-02-14T23:42:31.265Z,-0.12
2018-02-14T23:45:02.357Z,-0.16
2018-02-14T23:47:33.347Z,-0.19
2018-02-14T23:50:04.309Z,-0.20
2018-02-14T23:52:35.316Z,-0.24
2018-02-14T23:55:06.295Z,-0.32
2018-02-14T23:57:37.268Z,-0.32
